| time (UTC) | temp C | wind direction | speed KPH | gust KPH | rain 1hr cm | rain 24hr cm | rain mn cm | humidity % | barometer mb |
| 20260510171626 | 17 | 111 | 6.4 | 14.5 | 0.00 | 0.53 | 0.00 | 67 | 1012.4 |
| 20260510171500 | 17 | 203 | 4.8 | 12.9 | 0.00 | 0.53 | 0.00 | 69 | 1012.4 |
| 20260510170100 | 16 | 134 | 3.2 | 6.4 | 0.00 | 0.53 | 0.00 | 75 | 1012.7 |
| 20260510164603 | 16 | 339 | 0.0 | 6.4 | 0.00 | 0.61 | 0.00 | 78 | 1012.8 |
| 20260510163102 | 16 | 15 | 1.6 | 6.4 | 0.00 | 0.61 | 0.00 | 76 | 1012.4 |
| 20260510161549 | 15 | 344 | 1.6 | 3.2 | 0.00 | 0.61 | 0.00 | 80 | 1012.5 |
| 20260510160048 | 15 | 344 | 0.0 | 3.2 | 0.00 | 0.61 | 0.00 | 79 | 1012.4 |
| 20260510154545 | 15 | 70 | 0.0 | 4.8 | 0.00 | 0.76 | 0.61 | 80 | 1012.3 |
| 20260510153022 | 14 | 95 | 0.0 | 3.2 | 0.00 | 0.76 | 0.61 | 83 | 1012.4 |
| 20260510151519 | 14 | 96 | 1.6 | 6.4 | 0.00 | 0.76 | 0.61 | 81 | 1012.3 |
| 20260510150011 | 15 | 290 | 1.6 | 4.8 | 0.00 | 0.76 | 0.61 | 79 | 1012.2 |
| 20260510144511 | 14 | 183 | 1.6 | 8.0 | 0.00 | 0.86 | 0.61 | 83 | 1012.1 |
| 20260510143005 | 14 | 117 | 1.6 | 6.4 | 0.00 | 0.86 | 0.61 | 81 | 1012.1 |
| 20260510141507 | 14 | 80 | 3.2 | 6.4 | 0.00 | 0.86 | 0.61 | 81 | 1012.0 |
| 20260510140100 | 13 | 201 | 1.6 | 9.7 | 0.00 | 0.86 | 0.61 | 83 | 1012.0 |
| 20260510134557 | 13 | 119 | 1.6 | 9.7 | 0.00 | 0.86 | 0.61 | 87 | 1012.1 |
| 20260510133053 | 12 | 158 | 1.6 | 4.8 | 0.00 | 0.86 | 0.61 | 89 | 1012.2 |
| 20260510131550 | 12 | 130 | 1.6 | 4.8 | 0.00 | 0.86 | 0.61 | 91 | 1012.4 |
| 20260510130044 | 11 | 336 | 0.0 | 4.8 | 0.00 | 0.86 | 0.61 | 92 | 1012.4 |
| 20260510124547 | 11 | 318 | 0.0 | 4.8 | 0.00 | 0.86 | 0.61 | 93 | 1012.0 |
| 20260510123041 | 11 | 197 | 0.0 | 6.4 | 0.00 | 0.86 | 0.61 | 94 | 1012.4 |
| 20260510121538 | 11 | 177 | 1.6 | 4.8 | 0.00 | 0.86 | 0.61 | 95 | 1012.4 |
| 20260510120035 | 10 | 238 | 0.0 | 4.8 | 0.00 | 0.86 | 0.61 | 95 | 1012.3 |
| 20260510114532 | 10 | 97 | 1.6 | 6.4 | 0.00 | 0.86 | 0.61 | 96 | 1012.4 |
| 20260510113038 | 10 | 159 | 0.0 | 3.2 | 0.00 | 0.86 | 0.61 | 96 | 1012.0 |
| 20260510111529 | 10 | 159 | 0.0 | 3.2 | 0.00 | 0.86 | 0.61 | 96 | 1011.9 |
| 20260510110039 | 10 | 159 | 0.0 | 4.8 | 0.00 | 0.86 | 0.61 | 96 | 1012.0 |
| 20260510104554 | 10 | 161 | 0.0 | 3.2 | 0.00 | 0.86 | 0.61 | 96 | 1012.0 |
| 20260510103055 | 9 | 167 | 0.0 | 3.2 | 0.00 | 0.86 | 0.61 | 96 | 1011.6 |
| 20260510101520 | 9 | 167 | 0.0 | 4.8 | 0.00 | 0.86 | 0.61 | 96 | 1011.5 |
| 20260510100017 | 9 | 268 | 0.0 | 4.8 | 0.00 | 0.86 | 0.61 | 96 | 1010.8 |
| 20260510094520 | 8 | 265 | 0.0 | 1.6 | 0.00 | 0.86 | 0.61 | 96 | 1010.4 |
| 20260510093014 | 8 | 265 | 0.0 | 1.6 | 0.00 | 0.86 | 0.61 | 96 | 1010.4 |
| 20260510091514 | 8 | 265 | 0.0 | 3.2 | 0.00 | 0.86 | 0.61 | 96 | 1010.7 |
| 20260510090014 | 8 | 265 | 0.0 | 1.6 | 0.00 | 0.86 | 0.61 | 95 | 1010.6 |
| 20260510084510 | 8 | 265 | 0.0 | 0.0 | 0.00 | 0.86 | 0.61 | 95 | 1010.5 |
| 20260510083007 | 8 | 265 | 0.0 | 0.0 | 0.00 | 0.86 | 0.61 | 95 | 1011.0 |
| 20260510081506 | 8 | 265 | 0.0 | 0.0 | 0.00 | 0.86 | 0.61 | 95 | 1011.1 |
| 20260510080013 | 8 | 265 | 0.0 | 1.6 | 0.00 | 0.86 | 0.61 | 95 | 1011.0 |
| 20260510074503 | 8 | 265 | 0.0 | 1.6 | 0.00 | 0.86 | 0.61 | 95 | 1011.1 |
| 20260510073003 | 8 | 265 | 0.0 | 1.6 | 0.00 | 0.86 | 0.61 | 95 | 1011.2 |
| 20260510071502 | 8 | 265 | 0.0 | 1.6 | 0.00 | 0.86 | 0.61 | 95 | 1011.0 |
| 20260510070002 | 8 | 265 | 0.0 | 0.0 | 0.00 | 0.86 | 0.61 | 95 | 1010.9 |
| 20260510064600 | 9 | 265 | 0.0 | 0.0 | 0.00 | 0.86 | 0.61 | 95 | 1011.0 |
| 20260510063100 | 9 | 265 | 0.0 | 3.2 | 0.00 | 0.86 | 0.61 | 95 | 1011.4 |
| 20260510061559 | 8 | 265 | 0.0 | 0.0 | 0.00 | 0.86 | 0.61 | 95 | 1011.1 |
| 20260510060100 | 9 | 265 | 0.0 | 1.6 | 0.00 | 0.86 | 0.61 | 95 | 1011.2 |
| 20260510054556 | 9 | 265 | 0.0 | 4.8 | 0.00 | 0.86 | 0.61 | 95 | 1011.0 |
| 20260510053058 | 8 | 139 | 1.6 | 3.2 | 0.00 | 0.86 | 0.61 | 95 | 1010.9 |
| 20260510051605 | 9 | 139 | 0.0 | 1.6 | 0.00 | 0.86 | 0.61 | 95 | 1011.5 |
| 20260510050105 | 9 | 139 | 0.0 | 0.0 | 0.00 | 0.86 | 0.61 | 95 | 1011.5 |
| 20260510044549 | 9 | 139 | 0.0 | 1.6 | 0.00 | 0.86 | 0.61 | 95 | 1011.8 |
| 20260510043050 | 9 | 139 | 0.0 | 1.6 | 0.00 | 0.86 | 0.61 | 95 | 1011.8 |
| 20260510041551 | 9 | 139 | 0.0 | 3.2 | 0.00 | 0.86 | 0.61 | 95 | 1011.6 |
| 20260510040048 | 9 | 139 | 0.0 | 1.6 | 0.00 | 0.86 | 0.61 | 95 | 1011.7 |
| 20260510034545 | 9 | 139 | 0.0 | 0.0 | 0.00 | 0.86 | 0.61 | 95 | 1011.8 |
| 20260510033053 | 9 | 139 | 0.0 | 1.6 | 0.00 | 0.86 | 0.61 | 95 | 1011.7 |
| 20260510031547 | 8 | 139 | 0.0 | 1.6 | 0.00 | 0.86 | 0.61 | 95 | 1011.8 |
| 20260510030044 | 8 | 139 | 0.0 | 1.6 | 0.00 | 0.86 | 0.61 | 95 | 1011.8 |
| 20260510024539 | 8 | 139 | 0.0 | 3.2 | 0.00 | 0.86 | 0.61 | 95 | 1012.0 |
| 20260510023038 | 8 | 139 | 0.0 | 1.6 | 0.00 | 0.86 | 0.61 | 95 | 1011.8 |
| 20260510021620 | 8 | 139 | 0.0 | 1.6 | 0.00 | 0.86 | 0.61 | 95 | 1012.1 |
| 20260510020136 | 8 | 139 | 0.0 | 1.6 | 0.00 | 0.86 | 0.61 | 95 | 1012.3 |
| 20260510014546 | 8 | 139 | 0.0 | 0.0 | 0.00 | 0.86 | 0.61 | 94 | 1012.2 |
| 20260510013034 | 8 | 139 | 0.0 | 0.0 | 0.00 | 0.86 | 0.61 | 94 | 1012.4 |
| 20260510011532 | 8 | 139 | 0.0 | 1.6 | 0.00 | 0.86 | 0.61 | 94 | 1012.2 |
| 20260510010042 | 8 | 139 | 0.0 | 0.0 | 0.00 | 0.86 | 0.61 | 94 | 1012.2 |
| 20260510004529 | 8 | 139 | 0.0 | 1.6 | 0.00 | 0.86 | 0.61 | 94 | 1012.2 |
| 20260510003029 | 8 | 139 | 0.0 | 1.6 | 0.00 | 0.86 | 0.61 | 94 | 1012.0 |
| 20260510001528 | 8 | 139 | 0.0 | 1.6 | 0.00 | 0.86 | 0.61 | 94 | 1011.9 |
| 20260510000028 | 8 | 139 | 0.0 | 0.0 | 0.00 | 0.86 | 0.61 | 94 | 1011.7 |
| 20260509234557 | 8 | 139 | 0.0 | 1.6 | 0.00 | 0.86 | 0.61 | 94 | 1011.5 |
| 20260509233054 | 9 | 139 | 0.0 | 1.6 | 0.00 | 0.86 | 0.61 | 94 | 1011.4 |
| 20260509231519 | 9 | 139 | 0.0 | 0.0 | 0.00 | 0.86 | 0.61 | 94 | 1011.4 |
| 20260509230024 | 8 | 139 | 0.0 | 0.0 | 0.00 | 0.86 | 0.61 | 94 | 1011.6 |
| 20260509224509 | 8 | 139 | 0.0 | 1.6 | 0.00 | 0.86 | 0.61 | 94 | 1011.5 |
| 20260509223008 | 8 | 139 | 0.0 | 0.0 | 0.00 | 0.86 | 0.61 | 94 | 1011.5 |
| 20260509221507 | 8 | 139 | 0.0 | 1.6 | 0.00 | 0.86 | 0.61 | 93 | 1011.6 |
| 20260509220006 | 8 | 139 | 0.0 | 1.6 | 0.00 | 0.86 | 0.61 | 93 | 1011.8 |
| 20260509214504 | 8 | 142 | 0.0 | 1.6 | 0.00 | 0.86 | 0.61 | 93 | 1011.8 |
| 20260509213116 | 8 | 142 | 0.0 | 0.0 | 0.03 | 0.86 | 0.61 | 93 | 1012.0 |
| 20260509211605 | 8 | 142 | 0.0 | 3.2 | 0.03 | 0.86 | 0.61 | 93 | 1012.1 |
| 20260509204556 | 8 | 195 | 0.0 | 1.6 | 0.05 | 0.86 | 0.61 | 93 | 1012.2 |
| 20260509203055 | 8 | 195 | 0.0 | 1.6 | 0.08 | 0.84 | 0.58 | 93 | 1012.3 |
| 20260509201603 | 8 | 195 | 0.0 | 1.6 | 0.10 | 0.84 | 0.58 | 92 | 1012.2 |
| 20260509200055 | 8 | 195 | 0.0 | 1.6 | 0.13 | 0.81 | 0.56 | 93 | 1012.3 |
| 20260509194557 | 8 | 150 | 0.0 | 4.8 | 0.13 | 0.81 | 0.56 | 92 | 1012.4 |
| 20260509193046 | 8 | 269 | 0.0 | 3.2 | 0.13 | 0.76 | 0.51 | 93 | 1012.5 |
| 20260509191549 | 8 | 254 | 0.0 | 8.0 | 0.13 | 0.71 | 0.48 | 92 | 1012.6 |
| 20260509190046 | 8 | 323 | 0.0 | 3.2 | 0.10 | 0.69 | 0.43 | 92 | 1012.7 |
| 20260509184540 | 8 | 19 | 1.6 | 8.0 | 0.15 | 0.66 | 0.41 | 92 | 1012.9 |
| 20260509183013 | 8 | 193 | 0.0 | 3.2 | 0.20 | 0.64 | 0.38 | 93 | 1013.0 |
| 20260509181508 | 8 | 132 | 0.0 | 1.6 | 0.23 | 0.61 | 0.36 | 93 | 1013.0 |
| 20260509180003 | 8 | 132 | 0.0 | 3.2 | 0.20 | 0.56 | 0.30 | 93 | 1013.2 |
| 20260509174600 | 7 | 103 | 0.0 | 1.6 | 0.20 | 0.51 | 0.25 | 92 | 1013.4 |
| 20260509173107 | 7 | 103 | 0.0 | 3.2 | 0.18 | 0.46 | 0.20 | 92 | 1013.4 |